createdAt,value
2018-03-22T00:00:50.326Z,8.40
2018-03-22T00:03:24.635Z,8.60
2018-03-22T00:05:55.127Z,7.95
2018-03-22T00:08:25.804Z,8.17
2018-03-22T00:10:56.529Z,9.23
2018-03-22T00:13:26.685Z,8.35
2018-03-22T00:15:59.628Z,8.30
2018-03-22T00:18:30.821Z,8.10
2018-03-22T00:21:00.998Z,7.87
2018-03-22T00:23:33.347Z,8.43
2018-03-22T00:26:06.988Z,7.43
2018-03-22T00:28:38.388Z,8.63
2018-03-22T00:31:10.531Z,7.50
2018-03-22T00:33:41.718Z,8.10
2018-03-22T00:36:14.804Z,7.57
2018-03-22T00:38:45.723Z,7.97
2018-03-22T00:41:15.966Z,8.20
2018-03-22T00:43:47.091Z,7.73
2018-03-22T00:46:19.206Z,8.37
2018-03-22T00:48:50.022Z,7.67
2018-03-22T00:51:21.572Z,8.00
2018-03-22T00:53:52.026Z,7.87
2018-03-22T00:56:23.265Z,8.10
2018-03-22T00:58:54.642Z,7.90
2018-03-22T01:01:26.656Z,7.90
2018-03-22T01:03:57.780Z,6.87
2018-03-22T01:06:30.861Z,6.75
2018-03-22T01:09:02.174Z,7.03
2018-03-22T01:11:32.827Z,7.37
2018-03-22T01:14:07.575Z,7.13
2018-03-22T01:16:40.372Z,7.17
2018-03-22T01:19:11.863Z,6.73
2018-03-22T01:21:43.399Z,7.75
2018-03-22T01:24:16.214Z,7.30
2018-03-22T01:26:47.313Z,7.30
2018-03-22T01:29:19.029Z,7.90
2018-03-22T01:31:48.642Z,8.20
2018-03-22T01:34:18.655Z,8.60
2018-03-22T01:36:50.111Z,8.50
2018-03-22T01:39:20.785Z,7.97
2018-03-22T01:41:51.801Z,7.30
2018-03-22T01:44:21.435Z,7.20
2018-03-22T01:46:53.531Z,7.80
2018-03-22T01:49:24.562Z,7.93
2018-03-22T01:51:55.803Z,7.00
2018-03-22T01:54:29.297Z,8.00
2018-03-22T01:56:59.646Z,7.90
2018-03-22T01:59:29.736Z,7.50
2018-03-22T02:02:00.550Z,7.22
2018-03-22T02:04:32.622Z,7.87
2018-03-22T02:07:02.782Z,7.40
2018-03-22T02:09:32.747Z,7.50
2018-03-22T02:12:05.603Z,7.70
2018-03-22T02:14:36.413Z,7.30
2018-03-22T02:17:08.400Z,7.60
2018-03-22T02:19:39.534Z,7.90
2018-03-22T02:22:10.057Z,7.70
2018-03-22T02:24:40.877Z,7.60
2018-03-22T02:27:11.344Z,7.57
2018-03-22T02:29:44.125Z,7.20
2018-03-22T02:32:14.428Z,7.13
2018-03-22T02:34:44.414Z,7.43
2018-03-22T02:37:14.386Z,7.40
2018-03-22T02:39:48.086Z,7.70
2018-03-22T02:42:20.467Z,6.67
2018-03-22T02:44:51.428Z,7.50
2018-03-22T02:47:22.855Z,7.30
2018-03-22T02:49:55.564Z,7.47
2018-03-22T02:52:25.885Z,6.67
2018-03-22T02:54:57.306Z,6.67
2018-03-22T02:57:29.921Z,6.20
2018-03-22T03:00:01.157Z,6.50
2018-03-22T03:02:33.142Z,7.07
2018-03-22T03:05:04.044Z,8.40
2018-03-22T03:07:34.871Z,6.57
2018-03-22T03:10:05.690Z,6.87
2018-03-22T03:12:36.645Z,6.90
2018-03-22T03:15:06.463Z,6.67
2018-03-22T03:17:36.846Z,7.43
2018-03-22T03:20:07.946Z,11.07
2018-03-22T03:22:39.635Z,9.90
2018-03-22T03:25:10.618Z,7.80
2018-03-22T03:27:41.566Z,7.60
2018-03-22T03:30:13.003Z,8.20
2018-03-22T03:32:44.718Z,8.23
2018-03-22T03:35:14.829Z,7.60
2018-03-22T03:37:44.806Z,6.47
2018-03-22T03:40:14.897Z,6.27
2018-03-22T03:42:46.577Z,6.27
2018-03-22T03:45:16.792Z,6.10
2018-03-22T03:47:48.559Z,7.80
2018-03-22T03:50:20.462Z,7.47
2018-03-22T03:52:55.758Z,7.67
2018-03-22T03:55:25.738Z,6.90
2018-03-22T03:57:57.310Z,7.63
2018-03-22T04:00:27.446Z,8.40
2018-03-22T04:02:58.237Z,7.47
2018-03-22T04:05:29.224Z,8.43
2018-03-22T04:08:01.458Z,8.63
2018-03-22T04:10:31.742Z,8.00
2018-03-22T04:13:03.987Z,8.47
2018-03-22T04:15:34.389Z,8.40
2018-03-22T04:18:05.241Z,7.97
2018-03-22T04:20:35.096Z,7.57
2018-03-22T04:23:05.877Z,7.78
2018-03-22T04:25:36.341Z,7.17
2018-03-22T04:28:06.278Z,6.33
2018-03-22T04:30:36.232Z,7.17
2018-03-22T04:33:07.149Z,7.20
2018-03-22T04:35:37.229Z,8.03
2018-03-22T04:38:07.282Z,7.93
2018-03-22T04:40:40.397Z,7.13
2018-03-22T04:43:11.367Z,7.57
2018-03-22T04:45:43.544Z,7.07
2018-03-22T04:48:15.322Z,7.20
2018-03-22T04:50:46.943Z,7.33
2018-03-22T04:53:21.231Z,7.00
2018-03-22T04:55:52.483Z,7.57
2018-03-22T04:58:22.686Z,8.07
2018-03-22T05:00:53.568Z,6.80
2018-03-22T05:03:23.879Z,6.60
2018-03-22T05:05:54.176Z,7.23
2018-03-22T05:08:24.262Z,7.00
2018-03-22T05:10:56.183Z,7.53
2018-03-22T05:13:29.357Z,7.97
2018-03-22T05:16:00.683Z,8.15
2018-03-22T05:18:30.889Z,8.20
2018-03-22T05:21:06.064Z,6.97
2018-03-22T05:23:38.117Z,7.83
2018-03-22T05:26:08.822Z,6.87
2018-03-22T05:28:38.939Z,8.83
2018-03-22T05:31:10.757Z,8.83
2018-03-22T05:33:40.544Z,8.43
2018-03-22T05:36:17.811Z,7.78
2018-03-22T05:38:51.380Z,8.13
2018-03-22T05:41:22.541Z,8.93
2018-03-22T05:43:53.190Z,8.32
2018-03-22T05:46:23.218Z,8.17
2018-03-22T05:48:55.577Z,9.33
2018-03-22T05:51:27.870Z,8.33
2018-03-22T05:53:58.467Z,8.60
2018-03-22T05:56:29.590Z,8.33
2018-03-22T05:59:02.633Z,7.30
2018-03-22T06:01:34.975Z,7.47
2018-03-22T06:04:05.774Z,7.68
2018-03-22T06:06:38.652Z,6.60
2018-03-22T06:09:08.809Z,7.23
2018-03-22T06:11:39.549Z,6.87
2018-03-22T06:14:12.419Z,6.68
2018-03-22T06:16:43.406Z,6.76
2018-03-22T06:19:15.460Z,7.20
2018-03-22T06:21:46.086Z,8.60
2018-03-22T06:24:15.934Z,6.90
2018-03-22T06:26:49.932Z,7.20
2018-03-22T06:29:21.808Z,6.53
2018-03-22T06:31:53.247Z,7.35
2018-03-22T06:34:24.218Z,7.00
2018-03-22T06:36:55.291Z,7.60
2018-03-22T06:39:27.202Z,7.57
2018-03-22T06:41:58.539Z,7.93
2018-03-22T06:44:29.583Z,7.37
2018-03-22T06:47:02.430Z,6.77
2018-03-22T06:49:33.491Z,7.40
2018-03-22T06:52:04.036Z,6.87
2018-03-22T06:54:35.244Z,7.17
2018-03-22T06:57:06.851Z,8.63
2018-03-22T06:59:36.982Z,7.60
2018-03-22T07:02:21.623Z,6.90
2018-03-22T07:04:53.707Z,8.17
2018-03-22T07:07:24.607Z,8.43
2018-03-22T07:09:59.243Z,7.63
2018-03-22T07:12:30.454Z,7.40
2018-03-22T07:15:02.296Z,7.30
2018-03-22T07:17:33.609Z,7.30
2018-03-22T07:20:05.048Z,7.37
2018-03-22T07:22:35.467Z,7.40
2018-03-22T07:25:05.743Z,7.90
2018-03-22T07:27:37.003Z,8.03
2018-03-22T07:30:08.877Z,7.20
2018-03-22T07:32:38.581Z,7.77
2018-03-22T07:35:09.423Z,7.57
2018-03-22T07:37:39.380Z,7.73
2018-03-22T07:40:09.737Z,7.20
2018-03-22T07:42:39.999Z,7.33
2018-03-22T07:45:10.749Z,7.87
2018-03-22T07:47:42.528Z,6.97
2018-03-22T07:50:13.511Z,7.40
2018-03-22T07:52:44.334Z,7.63
2018-03-22T07:55:16.613Z,7.20
2018-03-22T07:57:46.797Z,7.07
2018-03-22T08:00:18.796Z,6.53
2018-03-22T08:02:49.409Z,6.47
2018-03-22T08:05:21.245Z,7.25
2018-03-22T08:07:52.582Z,7.57
2018-03-22T08:10:24.971Z,6.70
2018-03-22T08:12:58.866Z,6.37
2018-03-22T08:15:28.830Z,6.27
2018-03-22T08:17:59.765Z,6.10
2018-03-22T08:20:30.592Z,6.60
2018-03-22T08:23:01.682Z,6.83
2018-03-22T08:25:33.092Z,6.95
2018-03-22T08:28:05.912Z,7.03
2018-03-22T08:30:36.829Z,7.57
2018-03-22T08:33:10.415Z,6.83
2018-03-22T08:35:46.933Z,6.57
2018-03-22T08:38:20.497Z,7.03
2018-03-22T08:40:52.319Z,7.03
2018-03-22T08:43:23.592Z,6.83
2018-03-22T08:45:53.639Z,7.12
2018-03-22T08:48:29.146Z,6.87
2018-03-22T08:51:01.716Z,6.97
2018-03-22T08:53:31.811Z,7.40
2018-03-22T08:56:02.937Z,7.80
2018-03-22T08:58:36.243Z,7.90
2018-03-22T09:01:06.938Z,7.80
2018-03-22T09:03:37.935Z,7.70
2018-03-22T09:06:09.322Z,7.27
2018-03-22T09:08:39.771Z,8.10
2018-03-22T09:11:09.792Z,8.00
2018-03-22T09:13:41.805Z,7.83
2018-03-22T09:16:12.849Z,8.23
2018-03-22T09:18:46.688Z,7.20
2018-03-22T09:21:19.893Z,7.50
2018-03-22T09:23:50.319Z,7.47
2018-03-22T09:26:20.495Z,7.53
2018-03-22T09:28:50.814Z,7.60
2018-03-22T09:31:22.238Z,7.37
2018-03-22T09:33:52.341Z,7.63
2018-03-22T09:36:26.568Z,8.23
2018-03-22T09:38:56.864Z,8.73
2018-03-22T09:41:27.496Z,7.57
2018-03-22T09:44:00.445Z,9.33
2018-03-22T09:46:30.630Z,4.93
2018-03-22T09:49:00.868Z,8.67
2018-03-22T09:51:31.150Z,8.23
2018-03-22T09:54:02.709Z,7.77
2018-03-22T09:56:33.235Z,7.70
2018-03-22T09:59:08.330Z,7.73
2018-03-22T10:01:39.641Z,7.35
2018-03-22T10:04:13.467Z,5.83
2018-03-22T10:12:30.713Z,7.50
2018-03-22T10:15:01.603Z,7.50
2018-03-22T10:17:34.668Z,7.77
2018-03-22T10:20:04.909Z,7.10
2018-03-22T10:25:49.585Z,8.33
2018-03-22T10:28:20.700Z,8.50
2018-03-22T10:30:51.341Z,8.10
2018-03-22T10:33:23.142Z,8.38
2018-03-22T10:35:54.307Z,8.32
2018-03-22T10:38:24.835Z,8.37
2018-03-22T10:40:54.881Z,8.60
2018-03-22T10:43:24.730Z,8.40
2018-03-22T10:45:55.637Z,7.17
2018-03-22T10:48:26.001Z,8.47
2018-03-22T10:50:56.770Z,7.43
2018-03-22T10:53:29.547Z,8.10
2018-03-22T10:56:00.484Z,8.33
2018-03-22T10:58:31.710Z,8.67
2018-03-22T11:01:08.460Z,8.00
2018-03-22T11:03:44.222Z,8.80
2018-03-22T11:06:14.520Z,8.47
2018-03-22T11:08:46.975Z,8.27
2018-03-22T11:11:18.230Z,8.30
2018-03-22T11:13:50.065Z,8.94
2018-03-22T11:16:22.269Z,8.70
2018-03-22T11:18:55.226Z,8.83
2018-03-22T11:21:26.162Z,8.50
2018-03-22T11:24:16.492Z,8.23
2018-03-22T11:26:49.816Z,8.63
2018-03-22T11:29:24.705Z,8.95
2018-03-22T11:32:18.893Z,8.15
2018-03-22T11:34:49.307Z,8.07
2018-03-22T11:40:29.796Z,8.15
2018-03-22T11:42:59.717Z,7.93
2018-03-22T11:45:30.937Z,7.47
2018-03-22T11:48:01.722Z,8.47
2018-03-22T11:50:31.933Z,8.73
2018-03-22T11:53:02.576Z,8.83
2018-03-22T11:55:33.524Z,8.90
2018-03-22T11:58:04.652Z,8.45
2018-03-22T12:00:38.887Z,8.97
2018-03-22T12:03:09.810Z,8.60
2018-03-22T12:05:40.546Z,9.48
2018-03-22T12:08:13.615Z,9.60
2018-03-22T12:10:43.660Z,8.52
2018-03-22T12:13:15.344Z,8.85
2018-03-22T12:15:46.426Z,8.73
2018-03-22T12:18:16.070Z,8.57
2018-03-22T12:20:47.013Z,8.63
2018-03-22T12:23:18.463Z,8.77
2018-03-22T12:25:50.165Z,8.23
2018-03-22T12:28:20.179Z,8.87
2018-03-22T12:30:51.438Z,8.30
2018-03-22T12:33:21.860Z,7.82
2018-03-22T12:35:52.059Z,8.40
2018-03-22T12:38:22.146Z,8.20
2018-03-22T12:40:53.040Z,8.03
2018-03-22T12:43:23.844Z,7.50
2018-03-22T12:45:54.983Z,9.07
2018-03-22T12:48:25.726Z,8.37
2018-03-22T12:50:57.483Z,8.85
2018-03-22T12:53:27.273Z,9.47
2018-03-22T12:55:57.415Z,8.82
2018-03-22T12:58:27.555Z,8.70
2018-03-22T13:00:58.466Z,8.63
2018-03-22T13:03:30.358Z,9.00
2018-03-22T13:06:03.032Z,9.00
2018-03-22T13:08:34.960Z,8.80
2018-03-22T13:11:05.301Z,8.20
2018-03-22T13:13:35.269Z,9.30
2018-03-22T13:16:07.612Z,7.83
2018-03-22T13:18:38.394Z,7.63
2018-03-22T13:21:12.616Z,8.00
2018-03-22T13:23:42.393Z,8.40
2018-03-22T13:26:14.145Z,8.10
2018-03-22T13:28:44.337Z,8.13
2018-03-22T13:31:15.452Z,8.43
2018-03-22T13:33:49.509Z,7.77
2018-03-22T13:36:22.926Z,7.20
2018-03-22T13:38:54.228Z,8.03
2018-03-22T13:41:26.118Z,8.80
2018-03-22T13:43:55.855Z,8.45
2018-03-22T13:46:26.433Z,8.75
2018-03-22T13:48:56.203Z,9.25
2018-03-22T13:51:26.152Z,9.20
2018-03-22T13:53:56.653Z,9.03
2018-03-22T13:56:27.452Z,8.38
2018-03-22T13:58:57.651Z,9.10
2018-03-22T14:01:28.507Z,7.85
2018-03-22T14:03:58.821Z,8.03
2018-03-22T14:06:29.789Z,9.03
2018-03-22T14:08:59.559Z,8.57
2018-03-22T14:11:30.232Z,8.13
2018-03-22T14:14:00.676Z,8.77
2018-03-22T14:16:31.727Z,8.38
2018-03-22T14:19:06.801Z,8.97
2018-03-22T14:21:37.621Z,7.67
2018-03-22T14:24:08.614Z,8.63
2018-03-22T14:26:39.653Z,8.60
2018-03-22T14:29:09.618Z,7.73
2018-03-22T14:31:39.467Z,8.57
2018-03-22T14:34:09.481Z,8.67
2018-03-22T14:36:40.934Z,8.67
2018-03-22T14:42:25.507Z,8.00
2018-03-22T14:44:57.793Z,8.93
2018-03-22T14:47:28.809Z,8.85
2018-03-22T14:50:01.341Z,8.93
2018-03-22T14:52:32.556Z,9.30
2018-03-22T14:55:03.336Z,8.37
2018-03-22T14:57:33.438Z,8.27
2018-03-22T15:00:03.895Z,8.10
2018-03-22T15:02:33.788Z,7.40
2018-03-22T15:05:03.850Z,8.07
2018-03-22T15:07:45.125Z,8.33
2018-03-22T15:10:18.754Z,8.90
2018-03-22T15:12:49.368Z,8.07
2018-03-22T15:15:22.376Z,8.63
2018-03-22T15:17:53.604Z,8.93
2018-03-22T15:20:24.544Z,8.30
2018-03-22T15:22:54.538Z,9.07
2018-03-22T15:25:25.942Z,8.17
2018-03-22T15:27:58.327Z,8.40
2018-03-22T15:30:29.636Z,8.67
2018-03-22T15:33:00.438Z,9.40
2018-03-22T15:35:36.300Z,8.98
2018-03-22T15:38:11.282Z,9.47
2018-03-22T15:40:43.532Z,8.87
2018-03-22T15:43:15.130Z,8.53
2018-03-22T15:45:45.730Z,8.20
2018-03-22T15:48:19.264Z,8.55
2018-03-22T15:50:57.524Z,8.13
2018-03-22T15:53:32.326Z,8.82
2018-03-22T15:56:02.987Z,9.10
2018-03-22T15:58:37.294Z,8.23
2018-03-22T16:01:10.545Z,8.73
2018-03-22T16:03:41.961Z,8.43
2018-03-22T16:06:12.612Z,8.37
2018-03-22T16:08:42.642Z,9.07
2018-03-22T16:11:13.149Z,8.50
2018-03-22T16:13:43.406Z,8.67
2018-03-22T16:16:14.079Z,8.60
2018-03-22T16:18:45.653Z,8.50
2018-03-22T16:21:22.702Z,9.20
2018-03-22T16:23:55.169Z,9.43
2018-03-22T16:26:25.068Z,8.63
2018-03-22T16:28:58.585Z,9.63
2018-03-22T16:31:30.167Z,9.52
2018-03-22T16:34:00.092Z,9.03
2018-03-22T16:36:33.051Z,9.00
2018-03-22T16:39:04.055Z,9.30
2018-03-22T16:41:35.830Z,9.40
2018-03-22T16:44:06.369Z,9.30
2018-03-22T16:46:37.315Z,8.00
2018-03-22T16:49:07.830Z,9.97
2018-03-22T16:51:41.014Z,8.97
2018-03-22T16:54:13.628Z,9.00
2018-03-22T16:56:43.368Z,9.93
2018-03-22T16:59:14.086Z,9.27
2018-03-22T17:01:44.019Z,9.80
2018-03-22T17:04:16.245Z,10.33
2018-03-22T17:06:47.156Z,10.80
2018-03-22T17:09:18.130Z,9.93
2018-03-22T17:11:48.963Z,10.80
2018-03-22T17:14:18.946Z,9.65
2018-03-22T17:16:49.156Z,9.63
2018-03-22T17:19:19.865Z,10.07
2018-03-22T17:21:52.603Z,10.27
2018-03-22T17:24:24.221Z,9.87
2018-03-22T17:26:54.804Z,10.07
2018-03-22T17:29:24.947Z,8.93
2018-03-22T17:31:55.475Z,9.73
2018-03-22T17:34:26.356Z,10.20
2018-03-22T17:37:18.365Z,9.90
2018-03-22T17:39:50.809Z,9.70
2018-03-22T17:42:23.068Z,9.93
2018-03-22T17:44:56.371Z,10.18
2018-03-22T17:47:36.498Z,11.30
2018-03-22T17:50:06.276Z,11.23
2018-03-22T17:52:36.030Z,12.40
2018-03-22T17:55:07.681Z,11.57
2018-03-22T17:57:39.427Z,11.53
2018-03-22T18:00:13.928Z,11.43
2018-03-22T18:02:49.998Z,11.48
2018-03-22T18:05:23.779Z,12.23
2018-03-22T18:08:28.145Z,12.17
2018-03-22T18:11:02.702Z,11.43
2018-03-22T18:13:34.066Z,11.77
2018-03-22T18:16:06.005Z,11.60
2018-03-22T18:18:39.134Z,11.37
2018-03-22T18:21:26.661Z,11.40
2018-03-22T18:24:00.813Z,12.73
2018-03-22T18:26:31.082Z,12.82
2018-03-22T18:29:01.921Z,14.27
2018-03-22T18:31:34.237Z,14.10
2018-03-22T18:34:05.714Z,14.60
2018-03-22T18:36:37.330Z,14.35
2018-03-22T18:39:08.188Z,14.37
2018-03-22T18:41:39.794Z,15.55
2018-03-22T18:44:11.889Z,15.40
2018-03-22T18:46:42.273Z,15.40
2018-03-22T18:49:17.139Z,14.60
2018-03-22T18:51:47.773Z,16.00
2018-03-22T18:54:18.952Z,14.40
2018-03-22T18:56:50.117Z,13.17
2018-03-22T18:59:20.895Z,12.50
2018-03-22T19:01:50.788Z,13.27
2018-03-22T19:04:20.785Z,13.70
2018-03-22T19:06:51.960Z,12.47
2018-03-22T19:09:33.146Z,11.50
2018-03-22T19:12:03.900Z,12.03
2018-03-22T19:14:34.594Z,14.03
2018-03-22T19:17:06.937Z,13.02
2018-03-22T19:19:38.301Z,13.93
2018-03-22T19:22:08.254Z,13.70
2018-03-22T19:24:39.635Z,14.37
2018-03-22T19:27:10.887Z,13.40
2018-03-22T19:29:42.585Z,15.33
2018-03-22T19:32:15.377Z,14.57
2018-03-22T19:34:48.955Z,15.60
2018-03-22T19:37:21.776Z,16.05
2018-03-22T19:39:54.708Z,15.53
2018-03-22T19:42:24.935Z,15.10
2018-03-22T19:44:55.746Z,15.23
2018-03-22T19:47:26.053Z,17.10
2018-03-22T19:49:57.823Z,15.33
2018-03-22T19:52:28.114Z,15.10
2018-03-22T19:55:00.067Z,16.00
2018-03-22T19:57:31.446Z,16.17
2018-03-22T20:00:01.135Z,15.37
2018-03-22T20:02:32.493Z,15.30
2018-03-22T20:05:05.452Z,16.40
2018-03-22T20:07:36.420Z,14.90
2018-03-22T20:10:07.581Z,15.00
2018-03-22T20:12:40.881Z,15.00
2018-03-22T20:15:14.366Z,14.80
2018-03-22T20:17:46.663Z,15.93
2018-03-22T20:20:18.118Z,17.37
2018-03-22T20:22:50.058Z,16.07
2018-03-22T20:25:22.093Z,16.17
2018-03-22T20:27:56.556Z,15.87
2018-03-22T20:30:26.759Z,17.53
2018-03-22T20:33:00.564Z,16.60
2018-03-22T20:35:31.652Z,15.90
2018-03-22T20:38:02.468Z,15.63
2018-03-22T20:40:34.328Z,17.13
2018-03-22T20:43:05.457Z,15.35
2018-03-22T20:45:36.673Z,17.10
2018-03-22T20:48:07.454Z,16.80
2018-03-22T20:50:42.359Z,16.83
2018-03-22T20:53:15.094Z,18.13
2018-03-22T20:55:46.171Z,17.23
2018-03-22T20:58:22.094Z,16.63
2018-03-22T21:00:53.704Z,16.13
2018-03-22T21:03:25.215Z,18.47
2018-03-22T21:05:55.894Z,18.37
2018-03-22T21:08:27.537Z,19.97
2018-03-22T21:10:59.016Z,18.00
2018-03-22T21:13:31.761Z,18.63
2018-03-22T21:16:03.842Z,18.40
2018-03-22T21:18:34.217Z,17.57
2018-03-22T21:21:18.014Z,18.12
2018-03-22T21:23:50.322Z,17.13
2018-03-22T21:26:22.217Z,18.20
2018-03-22T21:28:54.937Z,17.73
2018-03-22T21:31:24.628Z,16.63
2018-03-22T21:33:55.204Z,16.03
2018-03-22T21:36:26.972Z,16.05
2018-03-22T21:38:57.009Z,17.10
2018-03-22T21:41:28.643Z,17.70
2018-03-22T21:44:16.778Z,17.67
2018-03-22T21:46:47.780Z,16.43
2018-03-22T21:49:19.278Z,16.27
2018-03-22T21:54:56.584Z,17.47
2018-03-22T21:57:26.815Z,16.63
2018-03-22T21:59:58.872Z,16.03
2018-03-22T22:02:28.649Z,16.07
2018-03-22T22:05:00.640Z,17.03
2018-03-22T22:07:33.608Z,17.00
2018-03-22T22:10:05.136Z,15.93
2018-03-22T22:12:42.568Z,16.20
2018-03-22T22:15:15.402Z,15.88
2018-03-22T22:17:47.620Z,15.10
2018-03-22T22:20:18.075Z,16.30
2018-03-22T22:22:48.383Z,15.15
2018-03-22T22:25:18.739Z,14.97
2018-03-22T22:27:49.687Z,15.05
2018-03-22T22:30:20.962Z,14.53
2018-03-22T22:35:49.814Z,16.05
2018-03-22T22:38:20.338Z,13.92
2018-03-22T22:41:12.603Z,15.87
2018-03-22T22:43:53.847Z,14.73
2018-03-22T22:46:24.673Z,16.67
2018-03-22T22:48:54.783Z,15.47
2018-03-22T22:51:26.432Z,15.67
2018-03-22T22:53:57.450Z,14.83
2018-03-22T22:56:30.245Z,15.15
2018-03-22T22:59:01.748Z,15.07
2018-03-22T23:01:32.051Z,14.70
2018-03-22T23:04:02.775Z,14.73
2018-03-22T23:06:33.867Z,14.60
2018-03-22T23:09:06.110Z,14.47
2018-03-22T23:11:46.507Z,15.00
2018-03-22T23:14:23.653Z,14.32
2018-03-22T23:16:54.773Z,13.87
2018-03-22T23:19:24.990Z,15.13
2018-03-22T23:21:55.760Z,15.40
2018-03-22T23:24:28.293Z,14.07
2018-03-22T23:27:02.803Z,13.90
2018-03-22T23:29:34.005Z,12.67
2018-03-22T23:32:04.612Z,13.63
2018-03-22T23:34:35.386Z,13.73
2018-03-22T23:37:06.670Z,13.73
2018-03-22T23:39:41.789Z,13.97
2018-03-22T23:42:23.628Z,14.53
2018-03-22T23:44:54.845Z,14.23
2018-03-22T23:47:26.931Z,12.97
2018-03-22T23:49:56.908Z,13.63
2018-03-22T23:52:32.038Z,13.10
2018-03-22T23:55:04.210Z,14.03
2018-03-22T23:57:35.009Z,12.40
